createdAt,value
2022-09-24T00:01:20.367Z,39.10
2022-09-24T00:06:29.885Z,39.10
2022-09-24T00:11:36.557Z,39.30
2022-09-24T00:16:42.739Z,39.10
2022-09-24T00:21:57.157Z,39.30
2022-09-24T00:27:01.461Z,39.80
2022-09-24T00:32:06.266Z,39.30
2022-09-24T00:37:11.174Z,39.40
2022-09-24T00:42:14.694Z,39.50
2022-09-24T00:47:27.761Z,39.50
2022-09-24T00:52:32.869Z,39.90
2022-09-24T00:57:36.320Z,39.70
2022-09-24T01:02:42.572Z,39.70
2022-09-24T01:07:49.392Z,39.90
2022-09-24T01:13:00.546Z,40.20
2022-09-24T01:18:10.958Z,40.30
2022-09-24T01:23:26.186Z,40.30
2022-09-24T01:28:39.029Z,40.60
2022-09-24T01:33:46.320Z,40.70
2022-09-24T01:38:53.158Z,40.50
2022-09-24T01:43:56.519Z,40.60
2022-09-24T01:49:01.543Z,40.50
2022-09-24T01:54:08.364Z,40.70
2022-09-24T01:59:16.072Z,40.90
2022-09-24T02:04:22.677Z,40.90
2022-09-24T02:09:31.964Z,41.20
2022-09-24T02:14:40.471Z,41.20
2022-09-24T02:19:45.905Z,41.20
2022-09-24T02:24:51.427Z,41.30
2022-09-24T02:29:55.191Z,41.20
2022-09-24T02:35:03.830Z,41.90
2022-09-24T02:40:10.317Z,41.70
2022-09-24T02:45:14.831Z,41.60
2022-09-24T02:50:19.475Z,41.40
2022-09-24T02:55:22.829Z,41.60
2022-09-24T03:00:26.077Z,41.60
2022-09-24T03:05:30.729Z,41.70
2022-09-24T03:10:34.062Z,41.80
2022-09-24T03:15:37.273Z,41.80
2022-09-24T03:20:42.625Z,41.90
2022-09-24T03:25:46.139Z,42.10
2022-09-24T03:31:01.681Z,42.00
2022-09-24T03:36:09.279Z,42.10
2022-09-24T03:41:13.676Z,42.30
2022-09-24T03:46:17.435Z,42.20
2022-09-24T03:51:22.861Z,42.20
2022-09-24T03:56:26.110Z,42.40
2022-09-24T04:01:31.342Z,42.30
2022-09-24T04:06:35.883Z,42.40
2022-09-24T04:11:39.255Z,42.50
2022-09-24T04:16:42.522Z,42.40
2022-09-24T04:21:47.146Z,42.50
2022-09-24T04:26:50.550Z,42.70
2022-09-24T04:31:54.009Z,42.60
2022-09-24T04:36:58.798Z,42.60
2022-09-24T04:42:01.970Z,42.90
2022-09-24T04:47:07.668Z,42.80
2022-09-24T04:52:14.659Z,42.80
2022-09-24T04:57:18.302Z,43.00
2022-09-24T05:02:21.853Z,42.90
2022-09-24T05:07:26.684Z,43.00
2022-09-24T05:12:29.856Z,43.10
2022-09-24T05:17:33.232Z,43.00
2022-09-24T05:22:41.576Z,43.10
2022-09-24T05:27:47.763Z,43.30
2022-09-24T05:32:52.522Z,43.50
2022-09-24T05:37:57.276Z,43.30
2022-09-24T05:43:02.195Z,43.40
2022-09-24T05:48:05.638Z,43.50
2022-09-24T05:53:12.139Z,43.40
2022-09-24T05:58:15.945Z,44.00
2022-09-24T06:03:20.940Z,43.70
2022-09-24T06:08:25.520Z,43.90
2022-09-24T06:13:28.685Z,43.80
2022-09-24T06:18:32.540Z,43.70
2022-09-24T06:23:37.820Z,43.70
2022-09-24T06:28:41.965Z,43.80
2022-09-24T06:33:45.144Z,46.60
2022-09-24T06:38:53.483Z,47.60
2022-09-24T06:43:57.068Z,48.80
2022-09-24T06:49:00.329Z,48.30
2022-09-24T06:54:05.245Z,46.90
2022-09-24T06:59:09.211Z,45.50
2022-09-24T07:04:13.322Z,44.50
2022-09-24T07:09:18.266Z,43.90
2022-09-24T07:14:21.427Z,43.50
2022-09-24T07:19:24.822Z,43.30
2022-09-24T07:24:29.384Z,43.10
2022-09-24T07:29:33.051Z,43.00
2022-09-24T07:34:36.284Z,42.90
2022-09-24T07:39:41.068Z,42.90
2022-09-24T07:44:44.655Z,42.90
2022-09-24T07:49:47.897Z,42.90
2022-09-24T07:54:54.273Z,42.90
2022-09-24T07:59:57.471Z,43.00
2022-09-24T08:05:02.533Z,43.10
2022-09-24T08:10:08.066Z,43.20
2022-09-24T08:15:11.943Z,43.20
2022-09-24T08:20:15.161Z,43.90
2022-09-24T08:25:20.067Z,43.30
2022-09-24T08:30:23.308Z,43.40
2022-09-24T08:35:27.264Z,43.40
2022-09-24T08:40:35.467Z,43.50
2022-09-24T08:46:01.768Z,43.50
2022-09-24T08:51:09.549Z,43.50
2022-09-24T08:56:15.819Z,43.50
2022-09-24T09:01:25.965Z,43.40
2022-09-24T09:06:53.913Z,43.20
2022-09-24T09:12:04.428Z,43.10
2022-09-24T09:17:20.074Z,43.10
2022-09-24T09:22:27.472Z,42.90
2022-09-24T09:27:32.936Z,42.90
2022-09-24T09:32:50.557Z,43.00
2022-09-24T09:38:03.189Z,42.80
2022-09-24T09:43:12.017Z,43.10
2022-09-24T09:48:16.746Z,45.50
2022-09-24T09:53:21.814Z,45.80
2022-09-24T09:58:28.874Z,46.00
2022-09-24T10:03:34.137Z,45.60
2022-09-24T10:08:37.324Z,44.90
2022-09-24T10:13:41.876Z,44.00
2022-09-24T10:18:49.290Z,43.80
2022-09-24T10:23:52.676Z,43.10
2022-09-24T10:29:14.758Z,41.10
2022-09-24T10:34:26.748Z,39.70
2022-09-24T10:39:31.008Z,38.00
2022-09-24T10:44:38.545Z,38.40
2022-09-24T10:50:04.223Z,37.10
2022-09-24T10:55:19.596Z,38.80
2022-09-24T11:00:26.075Z,37.40
2022-09-24T11:05:34.355Z,37.40
2022-09-24T11:11:02.750Z,37.60
2022-09-24T11:16:44.869Z,36.40
2022-09-24T11:22:09.459Z,36.30
2022-09-24T11:27:41.282Z,36.30
2022-09-24T11:32:58.153Z,36.40
2022-09-24T11:38:09.887Z,36.40
2022-09-24T11:43:44.156Z,36.80
2022-09-24T11:49:11.171Z,36.70
2022-09-24T11:54:25.540Z,36.90
2022-09-24T11:59:39.486Z,37.20
2022-09-24T12:04:52.760Z,37.30
2022-09-24T12:10:03.533Z,37.40
2022-09-24T12:15:11.005Z,37.20
2022-09-24T12:20:20.431Z,37.60
2022-09-24T12:25:26.736Z,37.50
2022-09-24T12:30:56.108Z,38.00
2022-09-24T12:36:06.633Z,37.80
2022-09-24T12:41:32.630Z,37.90
2022-09-24T12:46:41.662Z,37.50
2022-09-24T12:51:44.944Z,37.50
2022-09-24T12:56:49.606Z,37.80
2022-09-24T13:01:52.928Z,37.50
2022-09-24T13:06:56.492Z,37.40
2022-09-24T13:12:33.193Z,37.20
2022-09-24T13:17:38.676Z,36.70
2022-09-24T13:22:42.245Z,36.90
2022-09-24T13:27:58.135Z,36.70
2022-09-24T13:33:07.680Z,36.30
2022-09-24T13:38:19.666Z,36.40
2022-09-24T13:43:38.123Z,36.30
2022-09-24T13:48:44.959Z,36.30
2022-09-24T13:53:53.465Z,36.40
2022-09-24T13:59:07.502Z,36.40
2022-09-24T14:04:18.375Z,36.20
2022-09-24T14:09:30.781Z,36.20
2022-09-24T14:14:37.682Z,36.20
2022-09-24T14:19:40.978Z,36.40
2022-09-24T14:24:47.339Z,36.30
2022-09-24T14:29:57.869Z,36.30
2022-09-24T14:35:05.191Z,36.10
2022-09-24T14:40:14.045Z,36.40
2022-09-24T14:45:22.823Z,36.40
2022-09-24T14:50:35.253Z,36.40
2022-09-24T14:55:40.382Z,36.50
2022-09-24T15:00:51.124Z,36.60
2022-09-24T15:06:02.549Z,36.50
2022-09-24T15:11:07.441Z,36.70
2022-09-24T15:16:22.115Z,36.80
2022-09-24T15:21:25.563Z,36.80
2022-09-24T15:26:31.255Z,36.90
2022-09-24T15:31:36.147Z,37.00
2022-09-24T15:36:40.310Z,37.10
2022-09-24T15:41:43.516Z,37.20
2022-09-24T15:46:51.020Z,37.20
2022-09-24T15:51:57.342Z,37.30
2022-09-24T15:57:01.341Z,37.40
2022-09-24T16:02:16.585Z,37.50
2022-09-24T16:07:19.950Z,37.60
2022-09-24T16:12:28.026Z,37.60
2022-09-24T16:17:32.832Z,37.70
2022-09-24T16:22:36.020Z,37.80
2022-09-24T16:27:39.252Z,37.80
2022-09-24T16:32:43.877Z,37.90
2022-09-24T16:37:48.222Z,37.90
2022-09-24T16:42:51.420Z,37.90
2022-09-24T16:47:56.039Z,37.90
2022-09-24T16:52:59.225Z,37.90
2022-09-24T16:58:02.499Z,38.00
2022-09-24T17:03:07.489Z,38.00
2022-09-24T17:08:10.865Z,38.10
2022-09-24T17:13:14.100Z,38.00
2022-09-24T17:18:18.943Z,38.10
2022-09-24T17:23:22.205Z,38.20
2022-09-24T17:28:25.576Z,38.20
2022-09-24T17:33:46.137Z,38.40
2022-09-24T17:38:49.687Z,38.50
2022-09-24T17:43:53.343Z,38.60
2022-09-24T17:48:59.512Z,38.60
2022-09-24T17:54:04.548Z,38.80
2022-09-24T17:59:09.212Z,38.70
2022-09-24T18:04:15.791Z,38.80
2022-09-24T18:09:20.050Z,39.00
2022-09-24T18:14:24.018Z,39.10
2022-09-24T18:19:28.623Z,39.10
2022-09-24T18:24:31.810Z,39.20
2022-09-24T18:29:35.097Z,39.10
2022-09-24T18:34:39.924Z,39.90
2022-09-24T18:39:43.099Z,39.80
2022-09-24T18:44:46.919Z,39.30
2022-09-24T18:49:51.734Z,39.60
2022-09-24T18:54:54.919Z,39.70
2022-09-24T18:59:58.084Z,39.60
2022-09-24T19:05:02.633Z,39.70
2022-09-24T19:10:06.788Z,39.80
2022-09-24T19:15:10.279Z,39.80
2022-09-24T19:20:15.682Z,39.80
2022-09-24T19:25:18.876Z,40.00
2022-09-24T19:30:22.229Z,40.00
2022-09-24T19:35:27.791Z,40.00
2022-09-24T19:40:31.393Z,40.10
2022-09-24T19:45:35.752Z,40.20
2022-09-24T19:50:40.468Z,40.20
2022-09-24T19:55:44.518Z,41.10
2022-09-24T20:00:47.729Z,40.40
2022-09-24T20:05:52.316Z,40.50
2022-09-24T20:10:55.532Z,40.60
2022-09-24T20:15:59.873Z,40.60
2022-09-24T20:21:05.756Z,40.60
2022-09-24T20:26:28.332Z,40.90
2022-09-24T20:31:31.814Z,40.90
2022-09-24T20:36:36.499Z,40.90
2022-09-24T20:41:39.726Z,41.10
2022-09-24T20:46:43.391Z,41.10
2022-09-24T20:51:50.569Z,41.30
2022-09-24T20:56:57.811Z,41.50
2022-09-24T21:02:01.088Z,41.50
2022-09-24T21:07:05.701Z,41.60
2022-09-24T21:12:09.143Z,41.80
2022-09-24T21:17:12.443Z,41.80
2022-09-24T21:22:17.204Z,41.90
2022-09-24T21:27:20.512Z,42.30
2022-09-24T21:32:23.869Z,42.20
2022-09-24T21:37:28.828Z,42.40
2022-09-24T21:42:32.524Z,42.50
2022-09-24T21:47:35.705Z,42.50
2022-09-24T21:52:40.301Z,42.60
2022-09-24T21:57:43.503Z,42.80
2022-09-24T22:02:46.758Z,42.80
2022-09-24T22:07:51.677Z,42.90
2022-09-24T22:12:55.043Z,43.00
2022-09-24T22:17:58.429Z,43.10
2022-09-24T22:23:03.000Z,43.80
2022-09-24T22:28:06.600Z,43.30
2022-09-24T22:33:09.896Z,43.20
2022-09-24T22:38:16.416Z,43.30
2022-09-24T22:43:19.818Z,43.50
2022-09-24T22:48:23.000Z,43.40
2022-09-24T22:53:27.882Z,43.50
2022-09-24T22:58:31.310Z,43.60
2022-09-24T23:03:34.609Z,43.50
2022-09-24T23:08:40.944Z,43.60
2022-09-24T23:13:45.920Z,43.80
2022-09-24T23:18:52.025Z,43.90
2022-09-24T23:23:59.377Z,43.80
2022-09-24T23:29:02.978Z,44.00
2022-09-24T23:34:08.052Z,43.90
2022-09-24T23:39:12.757Z,44.00
2022-09-24T23:44:16.163Z,44.20
2022-09-24T23:49:19.527Z,44.10
2022-09-24T23:54:24.731Z,44.10
2022-09-24T23:59:27.889Z,44.40
